createdAt,value
2018-01-27T00:01:26.200Z,54.30
2018-01-27T00:03:53.764Z,55.20
2018-01-27T00:06:21.276Z,56.70
2018-01-27T00:08:48.890Z,60.07
2018-01-27T00:11:16.421Z,59.03
2018-01-27T00:13:50.908Z,54.80
2018-01-27T00:16:18.431Z,58.13
2018-01-27T00:18:45.985Z,58.40
2018-01-27T00:21:13.529Z,53.00
2018-01-27T00:23:41.053Z,57.90
2018-01-27T00:26:08.605Z,54.37
2018-01-27T00:28:36.137Z,54.73
2018-01-27T00:31:03.698Z,63.13
2018-01-27T00:33:31.221Z,62.63
2018-01-27T00:35:58.785Z,54.97
2018-01-27T00:38:26.528Z,54.40
2018-01-27T00:40:54.099Z,62.00
2018-01-27T00:43:21.643Z,51.10
2018-01-27T00:45:49.170Z,52.90
2018-01-27T00:48:16.804Z,57.07
2018-01-27T00:50:44.449Z,59.30
2018-01-27T00:53:12.144Z,56.00
2018-01-27T00:55:39.689Z,51.87
2018-01-27T00:58:07.263Z,59.23
2018-01-27T01:00:34.824Z,57.10
2018-01-27T01:03:02.356Z,51.70
2018-01-27T01:05:29.945Z,54.93
2018-01-27T01:07:57.492Z,54.67
2018-01-27T01:10:25.169Z,54.00
2018-01-27T01:12:52.689Z,58.23
2018-01-27T01:15:20.280Z,59.70
2018-01-27T01:17:48.637Z,57.63
2018-01-27T01:20:16.224Z,60.87
2018-01-27T01:22:43.750Z,60.07
2018-01-27T01:25:11.311Z,64.53
2018-01-27T01:27:38.842Z,58.87
2018-01-27T01:30:06.465Z,58.67
2018-01-27T01:32:34.025Z,62.93
2018-01-27T01:35:01.580Z,61.53
2018-01-27T01:37:29.112Z,65.70
2018-01-27T01:39:56.640Z,61.70
2018-01-27T01:42:29.764Z,63.57
2018-01-27T01:44:57.323Z,64.10
2018-01-27T01:47:24.884Z,67.17
2018-01-27T01:49:52.475Z,78.07
2018-01-27T01:52:20.001Z,61.57
2018-01-27T01:54:47.525Z,65.73
2018-01-27T01:57:15.041Z,58.60
2018-01-27T01:59:42.553Z,63.87
2018-01-27T02:02:10.105Z,66.77
2018-01-27T02:04:37.739Z,66.57
2018-01-27T02:07:05.260Z,67.10
2018-01-27T02:09:33.378Z,69.80
2018-01-27T02:12:00.940Z,65.67
2018-01-27T02:14:28.466Z,69.90
2018-01-27T02:16:56.010Z,65.53
2018-01-27T02:19:23.534Z,67.43
2018-01-27T02:21:51.067Z,65.40
2018-01-27T02:24:18.626Z,71.83
2018-01-27T02:26:46.151Z,66.33
2018-01-27T02:29:13.680Z,69.73
2018-01-27T02:31:41.202Z,62.30
2018-01-27T02:34:08.729Z,67.70
2018-01-27T02:36:36.256Z,68.57
2018-01-27T02:39:03.780Z,68.27
2018-01-27T02:41:31.744Z,71.57
2018-01-27T02:43:59.274Z,72.67
2018-01-27T02:46:26.805Z,63.73
2018-01-27T02:48:54.432Z,65.33
2018-01-27T02:51:21.974Z,65.63
2018-01-27T02:53:49.521Z,74.80
2018-01-27T02:56:17.048Z,69.60
2018-01-27T02:58:44.625Z,62.00
2018-01-27T03:01:12.158Z,82.30
2018-01-27T03:03:39.693Z,73.43
2018-01-27T03:06:07.232Z,73.60
2018-01-27T03:08:34.809Z,65.70
2018-01-27T03:11:02.320Z,70.87
2018-01-27T03:13:29.928Z,65.43
2018-01-27T03:15:57.446Z,69.77
2018-01-27T03:18:24.980Z,67.40
2018-01-27T03:20:52.606Z,63.20
2018-01-27T03:23:20.166Z,64.57
2018-01-27T03:25:47.682Z,73.77
2018-01-27T03:28:15.241Z,64.63
2018-01-27T03:30:42.773Z,70.87
2018-01-27T03:33:10.427Z,69.30
2018-01-27T03:35:37.961Z,71.30
2018-01-27T03:38:05.486Z,68.00
2018-01-27T03:40:33.042Z,70.10
2018-01-27T03:43:00.572Z,61.70
2018-01-27T03:45:28.100Z,63.43
2018-01-27T03:47:55.621Z,66.57
2018-01-27T03:50:23.146Z,72.83
2018-01-27T03:52:50.677Z,69.33
2018-01-27T03:55:18.193Z,65.37
2018-01-27T03:57:45.726Z,69.40
2018-01-27T04:00:13.249Z,66.93
2018-01-27T04:02:40.786Z,64.37
2018-01-27T04:05:08.307Z,70.23
2018-01-27T04:07:35.862Z,65.57
2018-01-27T04:10:03.373Z,72.10
2018-01-27T04:12:30.884Z,65.53
2018-01-27T04:14:58.516Z,64.93
2018-01-27T04:17:26.045Z,65.77
2018-01-27T04:19:53.564Z,70.70
2018-01-27T04:22:21.080Z,69.90
2018-01-27T04:24:48.610Z,70.13
2018-01-27T04:27:16.137Z,78.87
2018-01-27T04:29:43.659Z,64.60
2018-01-27T04:32:11.190Z,77.70
2018-01-27T04:34:38.713Z,72.50
2018-01-27T04:37:06.354Z,71.50
2018-01-27T04:39:33.884Z,69.00
2018-01-27T04:42:01.413Z,67.20
2018-01-27T04:44:28.964Z,74.37
2018-01-27T04:46:56.476Z,72.07
2018-01-27T04:49:24.033Z,77.03
2018-01-27T04:51:51.605Z,77.40
2018-01-27T04:54:19.129Z,73.70
2018-01-27T04:56:46.660Z,75.97
2018-01-27T04:59:14.189Z,79.20
2018-01-27T05:01:41.713Z,75.47
2018-01-27T05:04:09.241Z,72.87
2018-01-27T05:06:36.762Z,86.83
2018-01-27T05:09:04.294Z,82.70
2018-01-27T05:11:31.817Z,79.87
2018-01-27T05:13:59.349Z,88.03
2018-01-27T05:16:26.870Z,89.20
2018-01-27T05:18:54.400Z,73.97
2018-01-27T05:21:21.929Z,74.00
2018-01-27T05:23:49.459Z,73.93
2018-01-27T05:26:17.438Z,77.57
2018-01-27T05:28:45.000Z,73.37
2018-01-27T05:31:12.513Z,70.37
2018-01-27T05:33:40.035Z,72.30
2018-01-27T05:36:07.684Z,66.27
2018-01-27T05:38:35.218Z,62.77
2018-01-27T05:41:02.769Z,73.13
2018-01-27T05:43:30.280Z,76.87
2018-01-27T05:45:57.797Z,84.27
2018-01-27T05:48:25.350Z,72.77
2018-01-27T05:50:52.876Z,63.63
2018-01-27T05:53:20.393Z,71.60
2018-01-27T05:55:47.970Z,66.93
2018-01-27T05:58:15.500Z,71.70
2018-01-27T06:00:43.046Z,69.47
2018-01-27T06:03:10.575Z,62.13
2018-01-27T06:05:38.106Z,73.90
2018-01-27T06:08:05.620Z,65.67
2018-01-27T06:10:33.167Z,68.30
2018-01-27T06:13:00.709Z,70.10
2018-01-27T06:15:28.243Z,64.93
2018-01-27T06:17:55.775Z,77.23
2018-01-27T06:20:23.333Z,72.53
2018-01-27T06:22:50.878Z,68.57
2018-01-27T06:25:18.402Z,72.27
2018-01-27T06:27:46.045Z,68.13
2018-01-27T06:30:13.570Z,68.67
2018-01-27T06:32:41.089Z,66.40
2018-01-27T06:35:08.718Z,68.67
2018-01-27T06:37:36.232Z,76.57
2018-01-27T06:40:03.753Z,77.67
2018-01-27T06:42:31.275Z,70.30
2018-01-27T06:44:58.790Z,78.83
2018-01-27T06:47:26.315Z,76.47
2018-01-27T06:49:53.852Z,66.33
2018-01-27T06:52:21.372Z,65.67
2018-01-27T06:54:48.892Z,68.47
2018-01-27T06:57:16.457Z,70.73
2018-01-27T06:59:43.984Z,67.30
2018-01-27T07:02:11.573Z,74.13
2018-01-27T07:04:39.091Z,68.93
2018-01-27T07:07:06.609Z,68.07
2018-01-27T07:09:34.122Z,69.87
2018-01-27T07:12:01.646Z,69.47
2018-01-27T07:14:29.175Z,61.87
2018-01-27T07:16:56.696Z,60.43
2018-01-27T07:19:24.219Z,60.97
2018-01-27T07:21:51.854Z,62.07
2018-01-27T07:24:19.373Z,55.93
2018-01-27T07:26:46.943Z,53.77
2018-01-27T07:29:14.461Z,59.30
2018-01-27T07:31:41.988Z,50.43
2018-01-27T07:34:09.506Z,53.63
2018-01-27T07:36:37.035Z,50.93
2018-01-27T07:39:04.552Z,51.50
2018-01-27T07:41:32.073Z,51.00
2018-01-27T07:43:59.686Z,46.57
2018-01-27T07:46:27.214Z,50.00
2018-01-27T07:48:54.736Z,51.50
2018-01-27T07:51:22.267Z,48.87
2018-01-27T07:53:49.821Z,45.60
2018-01-27T07:56:17.350Z,45.27
2018-01-27T07:58:44.873Z,44.13
2018-01-27T08:01:12.489Z,44.87
2018-01-27T08:03:40.001Z,45.10
2018-01-27T08:06:07.525Z,46.27
2018-01-27T08:08:35.050Z,42.77
2018-01-27T08:11:02.570Z,41.10
2018-01-27T08:13:30.084Z,41.90
2018-01-27T08:15:57.618Z,40.47
2018-01-27T08:18:25.141Z,40.47
2018-01-27T08:20:52.648Z,42.43
2018-01-27T08:23:20.229Z,34.83
2018-01-27T08:25:47.795Z,37.30
2018-01-27T08:28:15.354Z,39.27
2018-01-27T08:30:42.874Z,34.50
2018-01-27T08:33:10.398Z,44.30
2018-01-27T08:35:37.938Z,43.33
2018-01-27T08:38:05.464Z,33.30
2018-01-27T08:40:32.993Z,35.00
2018-01-27T08:43:01.911Z,32.20
2018-01-27T08:45:29.494Z,34.17
2018-01-27T08:47:57.057Z,38.77
2018-01-27T08:50:24.623Z,35.90
2018-01-27T08:52:52.180Z,32.90
2018-01-27T08:55:19.733Z,32.67
2018-01-27T08:57:47.297Z,34.73
2018-01-27T10:16:11.827Z,27.37
2018-01-27T10:18:39.339Z,26.37
2018-01-27T10:21:06.945Z,31.90
2018-01-27T10:23:34.469Z,21.43
2018-01-27T10:26:02.016Z,31.20
2018-01-27T10:28:29.559Z,26.77
2018-01-27T10:30:57.185Z,31.33
2018-01-27T10:33:24.734Z,25.57
2018-01-27T10:35:52.273Z,27.97
2018-01-27T10:38:19.790Z,30.57
2018-01-27T10:40:47.317Z,25.80
2018-01-27T10:43:14.850Z,31.73
2018-01-27T10:45:42.393Z,31.77
2018-01-27T10:48:09.913Z,34.47
2018-01-27T10:50:37.446Z,31.47
2018-01-27T10:53:05.018Z,30.77
2018-01-27T10:55:32.538Z,26.17
2018-01-27T10:58:00.139Z,28.20
2018-01-27T11:00:27.660Z,30.90
2018-01-27T11:02:55.246Z,28.57
2018-01-27T11:05:22.818Z,31.67
2018-01-27T11:07:50.509Z,27.60
2018-01-27T11:10:18.142Z,31.23
2018-01-27T11:12:45.669Z,28.73
2018-01-27T11:15:13.191Z,32.57
2018-01-27T11:17:40.715Z,33.27
2018-01-27T11:20:08.241Z,28.03
2018-01-27T11:22:35.782Z,30.67
2018-01-27T11:25:03.306Z,27.60
2018-01-27T11:27:30.817Z,29.03
2018-01-27T11:29:58.426Z,30.27
2018-01-27T11:32:25.949Z,28.07
2018-01-27T11:34:53.547Z,31.73
2018-01-27T11:37:21.070Z,28.47
2018-01-27T11:39:48.606Z,32.10
2018-01-27T11:42:16.134Z,31.77
2018-01-27T11:44:43.660Z,32.13
2018-01-27T11:47:11.340Z,34.63
2018-01-27T11:49:38.866Z,33.67
2018-01-27T11:52:06.392Z,28.53
2018-01-27T11:54:34.017Z,29.43
2018-01-27T11:57:01.550Z,31.83
2018-01-27T11:59:29.070Z,29.40
2018-01-27T12:01:56.595Z,28.13
2018-01-27T12:04:24.113Z,30.90
2018-01-27T12:06:51.673Z,31.37
2018-01-27T12:09:19.197Z,27.83
2018-01-27T12:11:46.722Z,31.80
2018-01-27T12:14:14.244Z,34.33
2018-01-27T12:16:41.799Z,26.20
2018-01-27T12:19:09.330Z,31.83
2018-01-27T12:21:36.859Z,30.87
2018-01-27T12:24:04.384Z,33.37
2018-01-27T12:26:31.951Z,30.80
2018-01-27T12:28:59.486Z,32.50
2018-01-27T12:31:27.014Z,28.83
2018-01-27T12:33:54.530Z,29.03
2018-01-27T12:36:22.063Z,32.27
2018-01-27T12:38:49.582Z,32.17
2018-01-27T12:41:17.113Z,30.67
2018-01-27T12:43:44.653Z,29.57
2018-01-27T12:46:12.177Z,28.20
2018-01-27T12:48:39.722Z,35.67
2018-01-27T12:51:07.244Z,30.67
2018-01-27T12:53:34.791Z,32.53
2018-01-27T12:56:02.315Z,30.00
2018-01-27T12:58:29.847Z,31.40
2018-01-27T13:00:57.358Z,34.63
2018-01-27T13:03:24.981Z,28.50
2018-01-27T13:05:52.510Z,31.23
2018-01-27T13:08:20.098Z,31.47
2018-01-27T13:10:47.621Z,28.60
2018-01-27T13:13:15.224Z,25.47
2018-01-27T13:15:42.883Z,25.07
2018-01-27T13:18:10.410Z,27.50
2018-01-27T13:20:37.942Z,21.83
2018-01-27T13:23:05.558Z,19.93
2018-01-27T13:25:33.130Z,22.83
2018-01-27T13:28:00.650Z,23.43
2018-01-27T13:30:28.180Z,23.30
2018-01-27T13:32:55.810Z,19.60
2018-01-27T13:35:23.360Z,21.07
2018-01-27T13:37:50.949Z,24.23
2018-01-27T13:40:18.479Z,22.10
2018-01-27T13:42:46.051Z,25.30
2018-01-27T13:45:13.575Z,21.33
2018-01-27T13:47:41.164Z,20.83
2018-01-27T13:50:08.690Z,21.13
2018-01-27T13:52:36.214Z,18.67
2018-01-27T13:55:03.742Z,20.93
2018-01-27T13:57:31.274Z,21.93
2018-01-27T13:59:58.864Z,18.63
2018-01-27T14:02:26.411Z,25.57
2018-01-27T14:04:53.945Z,17.60
2018-01-27T14:07:21.468Z,21.77
2018-01-27T14:09:48.989Z,17.90
2018-01-27T14:12:16.559Z,24.00
2018-01-27T14:14:44.124Z,22.00
2018-01-27T14:17:11.651Z,19.33
2018-01-27T14:19:39.176Z,21.13
2018-01-27T14:22:06.800Z,21.00
2018-01-27T14:24:34.354Z,24.73
2018-01-27T14:27:01.877Z,22.70
2018-01-27T14:29:29.452Z,22.00
2018-01-27T14:31:56.982Z,22.20
2018-01-27T14:34:24.570Z,17.73
2018-01-27T14:36:52.081Z,20.77
2018-01-27T14:39:19.721Z,22.00
2018-01-27T14:41:47.245Z,23.30
2018-01-27T14:44:14.842Z,31.17
2018-01-27T14:46:42.373Z,22.67
2018-01-27T14:49:09.924Z,27.03
2018-01-27T14:51:37.530Z,27.23
2018-01-27T14:54:05.052Z,28.23
2018-01-27T14:56:32.577Z,26.53
2018-01-27T14:59:00.206Z,25.27
2018-01-27T15:01:27.730Z,31.35
2018-01-27T15:03:55.329Z,28.03
2018-01-27T15:06:22.844Z,25.67
2018-01-27T15:08:50.423Z,29.07
2018-01-27T15:11:17.937Z,26.00
2018-01-27T15:13:45.561Z,28.57
2018-01-27T15:16:13.085Z,25.37
2018-01-27T15:18:40.608Z,29.90
2018-01-27T15:21:08.133Z,25.77
2018-01-27T15:23:35.702Z,32.40
2018-01-27T15:26:03.226Z,30.00
2018-01-27T15:28:30.806Z,29.90
2018-01-27T15:30:58.333Z,28.77
2018-01-27T15:33:25.860Z,31.67
2018-01-27T15:35:53.494Z,27.13
2018-01-27T15:38:21.017Z,31.17
2018-01-27T15:40:48.554Z,32.80
2018-01-27T15:43:16.158Z,29.10
2018-01-27T15:45:43.734Z,31.67
2018-01-27T15:48:11.259Z,28.90
2018-01-27T15:50:38.903Z,30.83
2018-01-27T15:53:06.527Z,31.63
2018-01-27T15:55:34.045Z,32.43
2018-01-27T15:58:01.590Z,29.03
2018-01-27T16:00:29.115Z,31.63
2018-01-27T16:02:56.648Z,29.23
2018-01-27T16:05:24.173Z,30.23
2018-01-27T16:07:51.718Z,34.20
2018-01-27T16:10:19.313Z,28.20
2018-01-27T16:12:46.842Z,32.10
2018-01-27T16:15:14.368Z,29.63
2018-01-27T16:17:41.910Z,31.43
2018-01-27T16:20:09.444Z,31.40
2018-01-27T16:22:37.031Z,32.37
2018-01-27T16:25:04.570Z,32.27
2018-01-27T16:27:32.160Z,32.07
2018-01-27T16:29:59.378Z,27.93
2018-01-27T16:32:26.964Z,37.40
2018-01-27T16:34:54.555Z,28.33
2018-01-27T16:37:22.073Z,33.55
2018-01-27T16:39:49.638Z,37.10
2018-01-27T16:42:17.161Z,35.77
2018-01-27T16:44:44.694Z,40.37
2018-01-27T16:47:12.218Z,35.47
2018-01-27T16:49:39.739Z,37.47
2018-01-27T16:52:07.336Z,35.07
2018-01-27T16:54:34.907Z,33.17
2018-01-27T16:57:02.465Z,36.80
2018-01-27T16:59:29.985Z,38.43
2018-01-27T17:01:57.585Z,41.43
2018-01-27T17:04:25.157Z,37.23
2018-01-27T17:06:52.701Z,40.20
2018-01-27T17:09:20.221Z,34.10
2018-01-27T17:11:47.762Z,32.57
2018-01-27T17:14:15.389Z,35.27
2018-01-27T17:16:42.922Z,36.67
2018-01-27T17:19:10.509Z,40.03
2018-01-27T17:21:38.042Z,37.63
2018-01-27T17:24:05.613Z,44.83
2018-01-27T17:26:33.131Z,33.80
2018-01-27T17:29:00.659Z,39.20
2018-01-27T17:31:28.192Z,37.80
2018-01-27T17:33:55.712Z,38.80
2018-01-27T17:36:23.231Z,41.07
2018-01-27T17:38:50.759Z,36.80
2018-01-27T17:41:18.338Z,45.83
2018-01-27T17:43:45.906Z,40.20
2018-01-27T17:46:13.442Z,40.90
2018-01-27T17:48:41.027Z,38.40
2018-01-27T17:51:08.553Z,42.87
2018-01-27T17:53:36.076Z,40.27
2018-01-27T17:56:03.605Z,43.00
2018-01-27T17:58:31.130Z,40.83
2018-01-27T18:00:58.649Z,37.80
2018-01-27T18:03:26.183Z,37.60
2018-01-27T18:05:53.725Z,46.40
2018-01-27T18:08:21.273Z,37.00
2018-01-27T18:10:48.815Z,42.53
2018-01-27T18:13:16.412Z,45.27
2018-01-27T18:15:43.928Z,49.03
2018-01-27T18:18:11.462Z,40.77
2018-01-27T18:20:39.022Z,35.37
2018-01-27T18:23:06.560Z,45.57
2018-01-27T18:25:34.083Z,42.20
2018-01-27T18:28:01.664Z,41.73
2018-01-27T18:30:29.205Z,38.53
2018-01-27T18:32:56.733Z,43.70
2018-01-27T18:35:24.259Z,44.63
2018-01-27T18:37:51.815Z,40.33
2018-01-27T18:40:19.342Z,49.80
2018-01-27T18:42:46.887Z,51.20
2018-01-27T18:45:14.488Z,48.20
2018-01-27T18:47:42.020Z,45.90
2018-01-27T18:50:09.544Z,49.20
2018-01-27T18:52:37.078Z,46.83
2018-01-27T18:55:04.606Z,54.20
2018-01-27T18:57:32.120Z,48.37
2018-01-27T18:59:59.860Z,46.73
2018-01-27T19:02:27.515Z,46.30
2018-01-27T19:04:55.042Z,50.40
2018-01-27T19:07:22.630Z,51.57
2018-01-27T19:09:50.404Z,45.70
2018-01-27T19:12:17.949Z,53.27
2018-01-27T19:14:45.726Z,51.53
2018-01-27T19:17:13.269Z,52.30
2018-01-27T19:19:40.796Z,52.47
2018-01-27T19:22:08.320Z,51.97
2018-01-27T19:24:35.849Z,47.20
2018-01-27T19:27:03.400Z,45.47
2018-01-27T19:29:30.917Z,48.70
2018-01-27T19:31:58.435Z,50.00
2018-01-27T19:34:25.959Z,48.13
2018-01-27T19:36:53.554Z,50.17
2018-01-27T19:39:21.091Z,53.33
2018-01-27T19:41:48.616Z,52.03
2018-01-27T19:44:16.141Z,47.80
2018-01-27T19:46:43.664Z,58.77
2018-01-27T19:49:11.185Z,52.17
2018-01-27T19:51:38.710Z,51.63
2018-01-27T19:54:06.230Z,48.53
2018-01-27T19:56:33.901Z,51.33
2018-01-27T19:59:01.431Z,52.00
2018-01-27T20:01:28.973Z,50.47
2018-01-27T20:03:56.617Z,50.67
2018-01-27T20:06:24.144Z,48.43
2018-01-27T20:08:51.733Z,49.30
2018-01-27T20:11:19.401Z,58.03
2018-01-27T20:13:46.962Z,51.93
2018-01-27T20:16:14.519Z,51.23
2018-01-27T20:18:42.075Z,46.57
2018-01-27T20:21:09.600Z,57.27
2018-01-27T20:23:37.152Z,60.47
2018-01-27T20:26:04.683Z,53.70
2018-01-27T20:28:32.200Z,63.20
2018-01-27T20:30:59.726Z,52.77
2018-01-27T20:33:27.288Z,55.17
2018-01-27T20:35:54.810Z,56.60
2018-01-27T20:38:22.333Z,61.30
2018-01-27T20:40:49.873Z,58.10
2018-01-27T20:43:17.399Z,56.10
2018-01-27T20:45:44.929Z,68.37
2018-01-27T20:48:12.491Z,57.17
2018-01-27T20:50:40.021Z,54.00
2018-01-27T20:53:07.549Z,59.00
2018-01-27T20:55:35.174Z,52.93
2018-01-27T20:58:02.705Z,64.13
2018-01-27T21:00:30.228Z,60.40
2018-01-27T21:02:57.773Z,64.67
2018-01-27T21:05:25.372Z,65.90
2018-01-27T21:07:52.940Z,63.10
2018-01-27T21:10:20.484Z,61.73
2018-01-27T21:12:48.008Z,63.93
2018-01-27T21:15:15.640Z,62.87
2018-01-27T21:17:43.164Z,63.27
2018-01-27T21:20:10.693Z,60.17
2018-01-27T21:22:38.213Z,59.83
2018-01-27T21:25:05.752Z,63.00
2018-01-27T21:27:33.296Z,65.87
2018-01-27T21:30:00.814Z,59.37
2018-01-27T21:32:28.335Z,61.57
2018-01-27T21:34:55.877Z,60.47
2018-01-27T21:37:23.488Z,64.10
2018-01-27T21:39:51.006Z,71.07
2018-01-27T21:42:18.520Z,64.97
2018-01-27T21:44:46.043Z,74.97
2018-01-27T21:47:13.572Z,61.50
2018-01-27T21:49:41.097Z,67.27
2018-01-27T21:52:08.649Z,64.53
2018-01-27T21:54:36.170Z,64.67
2018-01-27T21:57:03.792Z,56.60
2018-01-27T21:59:31.306Z,59.87
2018-01-27T22:01:58.852Z,60.10
2018-01-27T22:04:26.369Z,61.97
2018-01-27T22:06:53.897Z,59.97
2018-01-27T22:09:21.427Z,61.20
2018-01-27T22:11:48.948Z,55.47
2018-01-27T22:14:16.479Z,56.07
2018-01-27T22:16:44.038Z,54.50
2018-01-27T22:19:11.565Z,50.23
2018-01-27T22:21:39.096Z,53.80
2018-01-27T22:24:06.729Z,47.07
2018-01-27T22:26:34.284Z,46.23
2018-01-27T22:29:01.821Z,49.37
2018-01-27T22:31:29.341Z,49.50
2018-01-27T22:33:56.890Z,47.03
2018-01-27T22:36:24.522Z,47.03
2018-01-27T22:38:52.039Z,46.07
2018-01-27T22:41:19.604Z,44.60
2018-01-27T22:43:47.124Z,46.30
2018-01-27T22:46:14.736Z,48.60
2018-01-27T22:48:42.251Z,44.77
2018-01-27T22:51:09.782Z,50.65
2018-01-27T22:53:37.341Z,45.70
2018-01-27T22:56:04.940Z,47.13
2018-01-27T22:58:32.460Z,45.53
2018-01-27T23:01:05.538Z,43.03
2018-01-27T23:03:33.106Z,40.63
2018-01-27T23:06:00.628Z,43.53
2018-01-27T23:08:28.181Z,47.57
2018-01-27T23:10:55.705Z,41.73
2018-01-27T23:13:23.230Z,40.73
2018-01-27T23:15:53.711Z,45.30
2018-01-27T23:18:21.274Z,40.80
2018-01-27T23:20:48.804Z,40.87
2018-01-27T23:23:16.676Z,45.30
2018-01-27T23:25:44.377Z,34.67
2018-01-27T23:28:11.977Z,37.60
2018-01-27T23:30:39.501Z,39.10
2018-01-27T23:33:07.043Z,34.07
2018-01-27T23:35:34.556Z,38.30
2018-01-27T23:38:02.108Z,33.77
2018-01-27T23:40:29.681Z,33.87
2018-01-27T23:42:57.236Z,34.57
2018-01-27T23:45:24.800Z,37.30
2018-01-27T23:47:52.325Z,28.67
2018-01-27T23:50:19.845Z,29.60
2018-01-27T23:52:47.455Z,25.63
2018-01-27T23:55:15.043Z,31.43
2018-01-27T23:57:42.600Z,27.03
